createdAt,value
2018-04-12T00:00:23.365Z,55.30
2018-04-12T00:01:23.387Z,54.00
2018-04-12T00:02:23.396Z,55.50
2018-04-12T00:03:23.423Z,56.30
2018-04-12T00:04:23.433Z,50.60
2018-04-12T00:05:23.456Z,48.60
2018-04-12T00:06:23.471Z,49.50
2018-04-12T00:07:23.489Z,50.40
2018-04-12T00:08:23.501Z,53.00
2018-04-12T00:09:23.520Z,53.00
2018-04-12T00:10:23.539Z,52.50
2018-04-12T00:11:23.554Z,50.60
2018-04-12T00:12:23.572Z,52.40
2018-04-12T00:13:23.590Z,52.50
2018-04-12T00:14:23.604Z,50.60
2018-04-12T00:15:23.622Z,48.20
2018-04-12T00:16:23.641Z,49.30
2018-04-12T00:17:23.664Z,53.60
2018-04-12T00:18:23.679Z,52.20
2018-04-12T00:19:23.693Z,51.60
2018-04-12T00:20:23.711Z,48.90
2018-04-12T00:21:23.737Z,49.80
2018-04-12T00:22:23.745Z,50.20
2018-04-12T00:23:23.762Z,51.20
2018-04-12T00:24:23.783Z,51.40
2018-04-12T00:25:23.802Z,49.60
2018-04-12T00:26:23.817Z,50.10
2018-04-12T00:27:23.844Z,51.80
2018-04-12T00:28:23.851Z,52.60
2018-04-12T00:29:23.869Z,48.80
2018-04-12T00:30:23.886Z,56.30
2018-04-12T00:31:23.908Z,50.40
2018-04-12T00:32:23.921Z,49.00
2018-04-12T00:33:23.939Z,51.90
2018-04-12T00:34:23.957Z,53.50
2018-04-12T00:35:23.973Z,49.20
2018-04-12T00:36:23.993Z,54.00
2018-04-12T00:37:24.010Z,53.10
2018-04-12T00:38:24.024Z,52.10
2018-04-12T00:39:24.041Z,53.50
2018-04-12T00:40:24.066Z,53.00
2018-04-12T00:41:24.083Z,55.70
2018-04-12T00:42:24.096Z,52.20
2018-04-12T00:43:24.113Z,51.40
2018-04-12T00:44:24.130Z,51.30
2018-04-12T00:45:24.148Z,50.90
2018-04-12T00:46:24.174Z,53.60
2018-04-12T00:47:24.190Z,52.10
2018-04-12T00:48:24.200Z,54.20
2018-04-12T00:49:24.271Z,50.00
2018-04-12T00:50:24.237Z,50.70
2018-04-12T00:51:24.255Z,51.40
2018-04-12T00:52:24.268Z,52.80
2018-04-12T00:53:24.304Z,50.70
2018-04-12T00:54:24.304Z,51.70
2018-04-12T00:55:24.321Z,53.40
2018-04-12T00:56:24.340Z,52.20
2018-04-12T00:57:24.357Z,52.40
2018-04-12T00:58:24.374Z,55.60
2018-04-12T00:59:24.391Z,53.80
2018-04-12T01:00:24.410Z,51.90
2018-04-12T01:01:24.431Z,54.00
2018-04-12T01:02:24.443Z,54.40
2018-04-12T01:03:24.465Z,56.40
2018-04-12T01:04:24.479Z,56.80
2018-04-12T01:05:24.496Z,56.00
2018-04-12T01:06:24.515Z,58.70
2018-04-12T01:07:24.529Z,57.40
2018-04-12T01:08:24.551Z,55.60
2018-04-12T01:09:24.568Z,59.80
2018-04-12T01:10:24.593Z,63.70
2018-04-12T01:11:24.608Z,60.70
2018-04-12T01:12:24.621Z,64.50
2018-04-12T01:13:24.636Z,63.10
2018-04-12T01:14:24.654Z,61.90
2018-04-12T01:15:24.675Z,66.30
2018-04-12T01:16:24.822Z,60.60
2018-04-12T01:17:24.708Z,65.40
2018-04-12T01:18:24.735Z,63.80
2018-04-12T01:19:24.743Z,64.70
2018-04-12T01:20:24.757Z,63.60
2018-04-12T01:21:24.783Z,65.00
2018-04-12T01:22:24.792Z,63.80
2018-04-12T01:23:24.810Z,67.20
2018-04-12T01:24:24.829Z,64.90
2018-04-12T01:25:24.847Z,66.40
2018-04-12T01:26:24.861Z,73.10
2018-04-12T01:27:24.878Z,64.10
2018-04-12T01:28:24.896Z,66.90
2018-04-12T01:29:24.922Z,68.50
2018-04-12T01:30:24.937Z,66.60
2018-04-12T01:31:24.955Z,68.20
2018-04-12T01:32:24.967Z,71.70
2018-04-12T01:33:24.982Z,70.40
2018-04-12T01:34:25.004Z,68.50
2018-04-12T01:35:25.018Z,69.70
2018-04-12T01:36:25.037Z,66.50
2018-04-12T01:37:25.054Z,72.40
2018-04-12T01:38:25.070Z,71.10
2018-04-12T01:39:25.094Z,71.40
2018-04-12T01:40:25.110Z,70.70
2018-04-12T01:41:25.128Z,74.20
2018-04-12T01:42:25.136Z,70.30
2018-04-12T01:43:25.159Z,72.60
2018-04-12T01:44:25.176Z,70.20
2018-04-12T01:45:25.193Z,71.70
2018-04-12T01:46:25.209Z,74.10
2018-04-12T01:47:25.227Z,71.70
2018-04-12T01:48:25.245Z,70.40
2018-04-12T01:49:25.260Z,74.20
2018-04-12T01:50:25.278Z,72.80
2018-04-12T01:51:25.297Z,73.80
2018-04-12T01:52:25.314Z,71.60
2018-04-12T01:53:25.330Z,76.30
2018-04-12T01:54:25.348Z,77.00
2018-04-12T01:55:25.364Z,71.20
2018-04-12T01:56:25.382Z,76.90
2018-04-12T01:57:25.404Z,78.40
2018-04-12T01:58:25.416Z,75.60
2018-04-12T01:59:25.437Z,81.40
2018-04-12T02:00:25.450Z,75.30
2018-04-12T02:01:25.473Z,77.60
2018-04-12T02:02:25.486Z,72.80
2018-04-12T02:03:25.503Z,76.30
2018-04-12T02:04:25.553Z,75.60
2018-04-12T02:05:25.539Z,72.50
2018-04-12T02:06:25.558Z,71.00
2018-04-12T02:07:25.576Z,77.70
2018-04-12T02:08:25.596Z,77.10
2018-04-12T02:09:25.616Z,74.80
2018-04-12T02:10:25.630Z,79.60
2018-04-12T02:11:25.644Z,76.20
2018-04-12T02:12:25.664Z,75.50
2018-04-12T02:13:25.681Z,73.10
2018-04-12T02:14:25.702Z,73.60
2018-04-12T02:15:25.716Z,71.20
2018-04-12T02:16:25.733Z,72.60
2018-04-12T02:17:25.752Z,74.70
2018-04-12T02:18:25.771Z,73.50
2018-04-12T02:19:25.785Z,72.50
2018-04-12T02:20:25.804Z,73.20
2018-04-12T02:21:25.825Z,73.00
2018-04-12T02:22:25.839Z,74.60
2018-04-12T02:23:25.858Z,74.10
2018-04-12T02:24:25.879Z,74.90
2018-04-12T02:25:25.893Z,74.60
2018-04-12T02:26:25.912Z,75.10
2018-04-12T02:27:25.927Z,82.20
2018-04-12T02:28:25.947Z,76.40
2018-04-12T02:29:25.965Z,76.10
2018-04-12T02:30:25.980Z,77.80
2018-04-12T02:31:25.999Z,79.90
2018-04-12T02:32:26.018Z,84.20
2018-04-12T02:33:26.043Z,83.10
2018-04-12T02:34:26.055Z,82.90
2018-04-12T02:35:26.072Z,82.00
2018-04-12T02:36:26.095Z,84.30
2018-04-12T02:37:26.108Z,80.50
2018-04-12T02:38:26.124Z,82.30
2018-04-12T02:39:26.143Z,81.80
2018-04-12T02:40:26.160Z,84.30
2018-04-12T02:41:26.178Z,82.10
2018-04-12T02:42:26.196Z,85.60
2018-04-12T02:43:26.212Z,85.90
2018-04-12T02:44:26.231Z,86.20
2018-04-12T02:45:26.251Z,84.20
2018-04-12T02:46:26.269Z,83.70
2018-04-12T02:47:26.287Z,84.90
2018-04-12T02:48:26.305Z,82.60
2018-04-12T02:49:26.324Z,81.10
2018-04-12T02:50:26.342Z,81.30
2018-04-12T02:51:26.363Z,87.90
2018-04-12T02:52:26.374Z,88.00
2018-04-12T02:53:26.392Z,88.60
2018-04-12T02:54:26.409Z,85.30
2018-04-12T02:55:26.427Z,90.80
2018-04-12T02:56:26.448Z,83.30
2018-04-12T02:57:26.462Z,90.10
2018-04-12T02:58:26.482Z,86.70
2018-04-12T02:59:26.499Z,90.50
2018-04-12T03:00:26.517Z,88.80
2018-04-12T03:01:26.536Z,89.90
2018-04-12T03:02:26.553Z,94.10
2018-04-12T03:03:26.570Z,90.50
2018-04-12T03:04:26.586Z,87.70
2018-04-12T03:05:26.605Z,91.50
2018-04-12T03:06:26.622Z,93.70
2018-04-12T03:07:26.642Z,95.50
2018-04-12T03:08:26.658Z,90.20
2018-04-12T03:09:26.673Z,95.20
2018-04-12T03:10:26.690Z,94.50
2018-04-12T03:11:26.712Z,94.60
2018-04-12T03:12:26.752Z,97.20
2018-04-12T03:13:26.744Z,93.60
2018-04-12T03:14:26.761Z,100.30
2018-04-12T03:15:26.780Z,99.60
2018-04-12T03:16:26.797Z,101.80
2018-04-12T03:17:26.816Z,95.00
2018-04-12T03:18:26.829Z,99.40
2018-04-12T03:19:26.848Z,98.50
2018-04-12T03:20:26.868Z,95.20
2018-04-12T03:21:26.883Z,98.30
2018-04-12T03:22:26.899Z,95.70
2018-04-12T03:23:26.918Z,97.10
2018-04-12T03:24:26.942Z,96.20
2018-04-12T03:25:26.953Z,103.70
2018-04-12T03:26:26.970Z,94.80
2018-04-12T03:27:26.987Z,100.00
2018-04-12T03:28:27.005Z,100.00
2018-04-12T03:29:27.022Z,107.90
2018-04-12T03:30:27.044Z,100.50
2018-04-12T03:31:27.066Z,99.40
2018-04-12T03:32:27.075Z,103.10
2018-04-12T03:33:27.091Z,97.00
2018-04-12T03:34:27.109Z,97.90
2018-04-12T03:35:27.123Z,104.40
2018-04-12T03:36:27.144Z,99.90
2018-04-12T03:37:27.160Z,98.30
2018-04-12T03:38:27.232Z,100.70
2018-04-12T03:39:27.195Z,98.50
2018-04-12T03:40:27.211Z,104.00
2018-04-12T03:41:27.232Z,102.90
2018-04-12T03:42:27.246Z,104.10
2018-04-12T03:43:27.262Z,77.10
2018-04-12T03:44:27.282Z,103.80
2018-04-12T03:45:27.300Z,107.10
2018-04-12T03:46:27.316Z,105.40
2018-04-12T03:47:27.335Z,102.00
2018-04-12T03:48:27.349Z,105.60
2018-04-12T03:49:27.406Z,105.10
2018-04-12T03:50:27.390Z,105.20
2018-04-12T03:51:27.403Z,103.70
2018-04-12T03:52:27.419Z,110.50
2018-04-12T03:53:27.437Z,102.60
2018-04-12T03:54:27.455Z,110.00
2018-04-12T03:55:27.475Z,99.90
2018-04-12T03:56:27.489Z,103.10
2018-04-12T03:57:27.503Z,106.70
2018-04-12T03:58:27.521Z,103.60
2018-04-12T03:59:27.543Z,104.60
2018-04-12T04:00:27.556Z,103.10
2018-04-12T04:01:27.572Z,105.60
2018-04-12T04:02:27.589Z,103.40
2018-04-12T04:03:27.604Z,106.70
2018-04-12T04:04:27.624Z,107.80
2018-04-12T04:05:27.641Z,110.80
2018-04-12T04:06:27.661Z,107.10
2018-04-12T04:07:27.675Z,107.80
2018-04-12T04:08:27.692Z,102.60
2018-04-12T04:09:27.708Z,104.10
2018-04-12T04:10:27.726Z,107.40
2018-04-12T04:11:27.741Z,108.40
2018-04-12T04:12:27.757Z,106.40
2018-04-12T04:13:27.778Z,106.60
2018-04-12T04:14:27.808Z,107.10
2018-04-12T04:15:27.811Z,112.70
2018-04-12T04:16:27.832Z,107.30
2018-04-12T04:17:27.852Z,108.60
2018-04-12T04:18:27.859Z,109.40
2018-04-12T04:19:27.893Z,106.30
2018-04-12T04:20:27.894Z,109.30
2018-04-12T04:21:27.915Z,112.10
2018-04-12T04:22:27.935Z,115.10
2018-04-12T04:23:27.960Z,107.40
2018-04-12T04:24:27.980Z,110.00
2018-04-12T04:25:28.008Z,102.20
2018-04-12T04:26:28.020Z,104.30
2018-04-12T04:27:28.024Z,110.10
2018-04-12T04:28:28.040Z,103.00
2018-04-12T04:29:28.050Z,107.50
2018-04-12T04:30:28.075Z,109.60
2018-04-12T04:31:28.091Z,111.20
2018-04-12T04:32:28.098Z,108.70
2018-04-12T04:33:28.117Z,112.30
2018-04-12T04:34:28.132Z,108.00
2018-04-12T04:35:28.152Z,110.20
2018-04-12T04:36:28.165Z,112.20
2018-04-12T04:37:28.191Z,111.70
2018-04-12T04:38:28.199Z,113.10
2018-04-12T04:39:28.218Z,113.00
2018-04-12T04:40:28.235Z,114.80
2018-04-12T04:41:28.250Z,113.60
2018-04-12T04:42:28.268Z,114.60
2018-04-12T04:43:28.285Z,116.70
2018-04-12T04:44:28.302Z,110.20
2018-04-12T04:45:28.320Z,109.90
2018-04-12T04:46:28.340Z,115.00
2018-04-12T04:47:28.354Z,110.60
2018-04-12T04:48:28.378Z,117.70
2018-04-12T04:49:28.406Z,116.90
2018-04-12T04:50:28.404Z,116.30
2018-04-12T04:51:28.421Z,117.90
2018-04-12T04:52:28.443Z,116.60
2018-04-12T04:53:28.455Z,114.60
2018-04-12T04:54:28.469Z,120.10
2018-04-12T04:55:28.486Z,113.30
2018-04-12T04:56:28.508Z,114.80
2018-04-12T04:57:28.523Z,104.90
2018-04-12T04:58:28.537Z,110.60
2018-04-12T04:59:28.553Z,108.30
2018-04-12T05:00:28.569Z,112.70
2018-04-12T05:01:28.635Z,108.80
2018-04-12T05:02:28.605Z,105.00
2018-04-12T05:03:28.621Z,113.30
2018-04-12T05:04:28.640Z,106.10
2018-04-12T05:05:28.656Z,109.30
2018-04-12T05:06:28.671Z,115.40
2018-04-12T05:07:28.693Z,110.20
2018-04-12T05:08:28.705Z,112.50
2018-04-12T05:09:28.727Z,115.40
2018-04-12T05:10:28.742Z,110.00
2018-04-12T05:11:28.756Z,112.00
2018-04-12T05:12:28.774Z,111.00
2018-04-12T05:13:28.793Z,112.40
2018-04-12T05:14:28.817Z,113.80
2018-04-12T05:15:28.865Z,107.70
2018-04-12T05:16:28.839Z,113.40
2018-04-12T05:17:28.859Z,107.80
2018-04-12T05:18:28.878Z,115.60
2018-04-12T05:19:28.892Z,121.50
2018-04-12T05:20:28.908Z,111.60
2018-04-12T05:21:28.924Z,108.80
2018-04-12T05:22:28.946Z,112.10
2018-04-12T05:23:28.958Z,109.70
2018-04-12T05:24:28.974Z,110.20
2018-04-12T05:25:28.992Z,114.70
2018-04-12T05:26:29.013Z,114.50
2018-04-12T05:27:29.027Z,113.00
2018-04-12T05:28:29.042Z,110.80
2018-04-12T05:29:29.060Z,111.50
2018-04-12T05:30:29.080Z,111.40
2018-04-12T05:31:29.094Z,108.30
2018-04-12T05:32:29.111Z,107.50
2018-04-12T05:33:29.128Z,104.80
2018-04-12T05:34:29.145Z,105.70
2018-04-12T05:35:29.159Z,109.60
2018-04-12T05:36:29.179Z,109.20
2018-04-12T05:37:29.195Z,111.20
2018-04-12T05:38:29.209Z,108.00
2018-04-12T05:39:29.232Z,105.00
2018-04-12T05:40:29.249Z,112.70
2018-04-12T05:41:29.262Z,107.50
2018-04-12T05:42:29.283Z,109.50
2018-04-12T05:43:29.296Z,106.90
2018-04-12T05:44:29.314Z,109.40
2018-04-12T05:45:29.339Z,105.80
2018-04-12T05:46:29.349Z,103.70
2018-04-12T05:47:29.366Z,103.20
2018-04-12T05:48:29.384Z,105.30
2018-04-12T05:49:29.397Z,106.40
2018-04-12T05:50:29.413Z,103.80
2018-04-12T05:51:29.432Z,101.00
2018-04-12T05:52:29.453Z,99.30
2018-04-12T05:53:29.468Z,103.00
2018-04-12T05:54:29.485Z,104.70
2018-04-12T05:55:29.502Z,106.90
2018-04-12T05:56:29.521Z,101.80
2018-04-12T05:57:29.536Z,98.70
2018-04-12T05:58:29.557Z,103.00
2018-04-12T05:59:29.605Z,100.00
2018-04-12T06:00:29.587Z,99.60
2018-04-12T06:01:29.605Z,102.40
2018-04-12T06:02:29.623Z,105.20
2018-04-12T06:03:29.640Z,109.80
2018-04-12T06:04:29.655Z,96.70
2018-04-12T06:05:29.675Z,104.30
2018-04-12T06:06:29.688Z,102.30
2018-04-12T06:07:29.710Z,103.30
2018-04-12T06:08:29.728Z,97.00
2018-04-12T06:09:29.745Z,97.20
2018-04-12T06:10:29.763Z,98.70
2018-04-12T06:11:29.777Z,99.80
2018-04-12T06:12:29.794Z,97.60
2018-04-12T06:13:29.816Z,100.70
2018-04-12T06:14:29.832Z,98.10
2018-04-12T06:15:29.847Z,96.00
2018-04-12T06:16:29.867Z,96.00
2018-04-12T06:17:29.883Z,98.80
2018-04-12T06:18:29.903Z,92.70
2018-04-12T06:19:29.917Z,97.70
2018-04-12T06:20:29.992Z,90.10
2018-04-12T06:21:29.957Z,90.20
2018-04-12T06:22:29.972Z,90.80
2018-04-12T06:23:29.989Z,89.90
2018-04-12T06:24:30.009Z,90.40
2018-04-12T06:25:30.025Z,91.60
2018-04-12T06:26:30.045Z,88.90
2018-04-12T06:27:30.060Z,85.60
2018-04-12T06:28:30.126Z,90.10
2018-04-12T06:29:30.129Z,88.20
2018-04-12T06:30:30.116Z,82.30
2018-04-12T06:31:30.130Z,83.80
2018-04-12T06:32:30.153Z,83.90
2018-04-12T06:33:30.169Z,84.00
2018-04-12T06:34:30.189Z,77.60
2018-04-12T06:35:30.205Z,82.60
2018-04-12T06:36:30.224Z,79.40
2018-04-12T06:37:30.243Z,78.10
2018-04-12T06:38:30.257Z,80.80
2018-04-12T06:39:30.276Z,79.60
2018-04-12T06:40:30.295Z,78.40
2018-04-12T06:41:30.316Z,80.20
2018-04-12T06:42:30.331Z,80.10
2018-04-12T06:43:30.349Z,82.50
2018-04-12T06:44:30.369Z,74.20
2018-04-12T06:45:30.392Z,79.90
2018-04-12T06:46:30.405Z,76.40
2018-04-12T06:47:30.422Z,83.10
2018-04-12T06:48:30.439Z,78.20
2018-04-12T06:49:30.461Z,78.60
2018-04-12T06:50:30.478Z,76.40
2018-04-12T06:51:30.496Z,78.70
2018-04-12T06:52:30.515Z,81.00
2018-04-12T06:53:30.537Z,79.10
2018-04-12T06:54:30.550Z,81.30
2018-04-12T06:55:30.570Z,78.30
2018-04-12T06:56:30.593Z,83.30
2018-04-12T06:57:30.606Z,77.90
2018-04-12T06:58:30.627Z,74.60
2018-04-12T06:59:30.646Z,77.90
2018-04-12T07:00:30.661Z,85.30
2018-04-12T07:01:30.680Z,74.70
2018-04-12T07:02:30.697Z,77.60
2018-04-12T07:03:30.716Z,76.80
2018-04-12T07:04:30.733Z,75.20
2018-04-12T07:05:30.751Z,78.60
2018-04-12T07:06:30.768Z,75.10
2018-04-12T07:07:30.787Z,73.10
2018-04-12T07:08:30.808Z,76.00
2018-04-12T07:09:30.824Z,72.40
2018-04-12T07:10:30.841Z,73.30
2018-04-12T07:11:30.863Z,72.00
2018-04-12T07:12:30.877Z,71.90
2018-04-12T07:13:30.897Z,69.00
2018-04-12T07:14:30.915Z,68.30
2018-04-12T07:15:30.933Z,69.90
2018-04-12T07:16:30.949Z,71.60
2018-04-12T07:17:30.971Z,69.30
2018-04-12T07:18:30.986Z,71.80
2018-04-12T07:19:31.005Z,74.60
2018-04-12T07:20:31.031Z,67.60
2018-04-12T07:21:31.042Z,65.50
2018-04-12T07:22:31.061Z,66.30
2018-04-12T07:23:31.078Z,69.20
2018-04-12T07:24:31.094Z,71.90
2018-04-12T07:25:31.114Z,67.90
2018-04-12T07:26:31.133Z,71.70
2018-04-12T07:27:31.154Z,63.30
2018-04-12T07:28:31.172Z,64.90
2018-04-12T07:29:31.193Z,66.40
2018-04-12T07:30:31.209Z,64.80
2018-04-12T07:31:31.226Z,67.60
2018-04-12T07:32:31.247Z,65.30
2018-04-12T07:33:31.264Z,63.70
2018-04-12T07:34:31.284Z,66.10
2018-04-12T07:35:31.300Z,64.60
2018-04-12T07:36:31.320Z,61.70
2018-04-12T07:37:31.341Z,65.30
2018-04-12T07:38:31.360Z,65.60
2018-04-12T07:39:31.379Z,63.40
2018-04-12T07:40:31.399Z,60.70
2018-04-12T07:41:31.429Z,61.70
2018-04-12T07:42:31.440Z,61.80
2018-04-12T07:43:31.460Z,61.60
2018-04-12T07:44:31.483Z,62.10
2018-04-12T07:45:31.506Z,58.70
2018-04-12T07:46:31.521Z,57.50
2018-04-12T07:47:31.541Z,56.60
2018-04-12T07:48:31.563Z,57.00
2018-04-12T07:49:31.623Z,56.00
2018-04-12T07:50:31.608Z,55.10
2018-04-12T07:51:31.628Z,56.80
2018-04-12T07:52:31.652Z,57.10
2018-04-12T07:53:31.678Z,55.60
2018-04-12T07:54:31.705Z,54.90
2018-04-12T07:55:31.773Z,50.90
2018-04-12T07:56:31.739Z,55.70
2018-04-12T07:57:31.763Z,57.90
2018-04-12T07:58:31.782Z,58.20
2018-04-12T07:59:31.803Z,57.10
2018-04-12T08:00:31.827Z,64.20
2018-04-12T08:01:31.846Z,60.70
2018-04-12T08:02:31.864Z,58.50
2018-04-12T08:03:31.885Z,57.30
2018-04-12T08:04:31.908Z,62.80
2018-04-12T08:05:31.930Z,63.00
2018-04-12T08:06:31.949Z,62.50
2018-04-12T08:07:31.971Z,58.50
2018-04-12T08:08:31.989Z,62.90
2018-04-12T08:09:32.010Z,59.20
2018-04-12T08:10:32.027Z,53.30
2018-04-12T08:11:32.048Z,60.30
2018-04-12T08:12:32.068Z,62.40
2018-04-12T08:13:32.088Z,57.30
2018-04-12T08:14:32.106Z,61.20
2018-04-12T08:15:32.128Z,58.50
2018-04-12T08:16:32.147Z,59.00
2018-04-12T08:17:32.167Z,58.80
2018-04-12T08:18:32.196Z,57.10
2018-04-12T08:19:32.205Z,53.20
2018-04-12T08:20:32.227Z,59.00
2018-04-12T08:21:32.247Z,58.00
2018-04-12T08:22:32.269Z,58.60
2018-04-12T08:23:32.297Z,57.70
2018-04-12T08:24:32.309Z,63.00
2018-04-12T08:25:32.329Z,57.10
2018-04-12T08:26:32.348Z,58.80
2018-04-12T08:27:32.368Z,63.00
2018-04-12T08:28:32.386Z,60.70
2018-04-12T08:29:32.405Z,57.70
2018-04-12T08:30:32.424Z,55.30
2018-04-12T08:31:32.442Z,62.70
2018-04-12T08:32:32.463Z,53.40
2018-04-12T08:33:32.484Z,55.40
2018-04-12T08:34:32.507Z,57.10
2018-04-12T08:35:32.524Z,59.40
2018-04-12T08:36:32.544Z,58.40
2018-04-12T08:37:32.566Z,55.60
2018-04-12T08:38:32.584Z,53.30
2018-04-12T08:39:32.603Z,55.00
2018-04-12T08:40:32.623Z,55.10
2018-04-12T08:41:32.649Z,56.50
2018-04-12T08:42:32.663Z,54.10
2018-04-12T08:43:32.686Z,60.00
2018-04-12T08:44:32.703Z,55.50
2018-04-12T08:45:32.725Z,56.80
2018-04-12T08:46:32.745Z,55.10
2018-04-12T08:47:32.770Z,56.60
2018-04-12T08:48:32.784Z,50.90
2018-04-12T08:49:32.805Z,52.80
2018-04-12T08:50:32.826Z,51.00
2018-04-12T08:51:32.849Z,51.10
2018-04-12T08:52:32.868Z,52.60
2018-04-12T08:53:32.886Z,51.40
2018-04-12T08:54:32.915Z,53.80
2018-04-12T08:55:32.929Z,51.30
2018-04-12T08:56:32.944Z,55.30
2018-04-12T08:57:32.970Z,57.70
2018-04-12T08:58:33.016Z,51.00
2018-04-12T08:59:33.006Z,49.90
2018-04-12T09:00:33.032Z,50.80
2018-04-12T09:01:33.054Z,50.50
2018-04-12T09:02:33.069Z,52.90
2018-04-12T09:03:33.086Z,53.00
2018-04-12T09:04:33.108Z,48.30
2018-04-12T09:05:33.134Z,50.50
2018-04-12T09:06:33.147Z,50.60
2018-04-12T09:07:33.172Z,52.60
2018-04-12T09:08:33.190Z,52.10
2018-04-12T09:09:33.217Z,51.40
2018-04-12T09:10:33.234Z,54.60
2018-04-12T09:11:33.264Z,50.40
2018-04-12T09:12:33.277Z,52.20
2018-04-12T09:13:33.296Z,49.80
2018-04-12T09:14:33.312Z,51.30
2018-04-12T09:15:33.332Z,49.80
2018-04-12T09:16:33.356Z,54.10
2018-04-12T09:17:33.376Z,53.00
2018-04-12T09:18:33.392Z,54.00
2018-04-12T09:19:33.416Z,53.90
2018-04-12T09:20:33.435Z,52.50
2018-04-12T09:21:33.456Z,51.80
2018-04-12T09:22:33.475Z,49.50
2018-04-12T09:23:33.497Z,50.00
2018-04-12T09:24:33.521Z,49.00
2018-04-12T09:25:33.539Z,54.70
2018-04-12T09:26:33.558Z,52.30
2018-04-12T09:27:33.581Z,51.30
2018-04-12T09:28:33.601Z,48.30
2018-04-12T09:29:33.620Z,58.10
2018-04-12T09:30:33.653Z,50.10
2018-04-12T09:31:33.670Z,53.90
2018-04-12T09:32:33.685Z,51.30
2018-04-12T09:33:33.705Z,48.50
2018-04-12T09:34:33.724Z,50.40
2018-04-12T09:35:33.746Z,50.10
2018-04-12T09:36:33.766Z,48.20
2018-04-12T09:37:33.786Z,50.60
2018-04-12T09:38:33.809Z,54.30
2018-04-12T09:39:33.831Z,52.80
2018-04-12T09:40:33.853Z,52.50
2018-04-12T09:41:33.869Z,48.70
2018-04-12T09:42:33.892Z,49.40
2018-04-12T09:43:33.912Z,46.20
2018-04-12T09:44:33.934Z,52.40
2018-04-12T09:45:33.952Z,51.10
2018-04-12T09:46:33.978Z,51.80
2018-04-12T09:47:34.000Z,54.80
2018-04-12T09:48:34.017Z,47.70
2018-04-12T09:49:34.035Z,54.80
2018-04-12T09:50:34.055Z,51.00
2018-04-12T09:51:34.084Z,52.10
2018-04-12T09:52:34.103Z,53.90
2018-04-12T09:53:34.117Z,50.40
2018-04-12T09:54:34.140Z,52.80
2018-04-12T09:55:34.162Z,52.10
2018-04-12T09:56:34.182Z,52.50
2018-04-12T09:57:34.199Z,57.50
2018-04-12T09:58:34.224Z,57.00
2018-04-12T09:59:34.245Z,50.90
2018-04-12T10:00:34.276Z,57.10
2018-04-12T10:01:34.284Z,52.00
2018-04-12T10:02:34.305Z,57.60
2018-04-12T10:03:34.328Z,55.10
2018-04-12T10:04:34.346Z,55.50
2018-04-12T10:05:34.368Z,58.10
2018-04-12T10:06:34.398Z,55.50
2018-04-12T10:07:34.408Z,54.70
2018-04-12T10:08:34.428Z,56.10
2018-04-12T10:09:34.454Z,55.30
2018-04-12T10:10:34.477Z,55.90
2018-04-12T10:11:34.492Z,57.80
2018-04-12T10:12:34.511Z,60.50
2018-04-12T10:13:34.529Z,56.60
2018-04-12T10:14:34.547Z,62.70
2018-04-12T10:15:34.576Z,63.10
2018-04-12T10:16:34.632Z,60.10
2018-04-12T10:17:34.610Z,62.80
2018-04-12T10:18:34.637Z,60.50
2018-04-12T10:19:34.652Z,66.50
2018-04-12T10:20:34.669Z,67.50
2018-04-12T10:21:34.744Z,59.00
2018-04-12T10:22:34.710Z,60.20
2018-04-12T10:23:34.729Z,63.10
2018-04-12T10:24:34.748Z,64.40
2018-04-12T10:25:34.807Z,63.20
2018-04-12T10:26:34.790Z,63.30
2018-04-12T10:27:34.810Z,65.00
2018-04-12T10:28:34.830Z,67.10
2018-04-12T10:29:34.851Z,65.10
2018-04-12T10:30:34.868Z,66.30
2018-04-12T10:31:34.892Z,65.80
2018-04-12T10:32:34.913Z,64.30
2018-04-12T10:33:34.939Z,71.20
2018-04-12T10:34:34.946Z,64.30
2018-04-12T10:35:34.969Z,65.10
2018-04-12T10:36:34.991Z,64.10
2018-04-12T10:37:35.007Z,65.30
2018-04-12T10:38:35.036Z,64.60
2018-04-12T10:39:35.088Z,61.20
2018-04-12T10:40:35.067Z,64.90
2018-04-12T10:41:35.096Z,66.70
2018-04-12T10:42:35.114Z,68.20
2018-04-12T10:43:35.141Z,67.30
2018-04-12T10:44:35.152Z,69.20
2018-04-12T10:45:35.168Z,68.10
2018-04-12T10:46:35.184Z,65.10
2018-04-12T10:47:35.206Z,70.80
2018-04-12T10:48:35.230Z,74.10
2018-04-12T10:49:35.250Z,66.90
2018-04-12T10:50:35.264Z,68.50
2018-04-12T10:51:35.285Z,68.00
2018-04-12T10:52:35.308Z,66.00
2018-04-12T10:53:35.327Z,68.20
2018-04-12T10:54:35.346Z,68.80
2018-04-12T10:55:35.372Z,68.40
2018-04-12T10:56:35.384Z,69.00
2018-04-12T10:57:35.403Z,71.10
2018-04-12T10:58:35.422Z,66.80
2018-04-12T10:59:35.441Z,63.50
2018-04-12T11:00:35.466Z,67.50
2018-04-12T11:01:35.482Z,63.90
2018-04-12T11:02:35.500Z,64.40
2018-04-12T11:03:35.524Z,64.20
2018-04-12T11:04:35.543Z,66.70
2018-04-12T11:05:35.562Z,64.80
2018-04-12T11:06:35.581Z,63.50
2018-04-12T11:07:35.605Z,60.30
2018-04-12T11:08:35.629Z,62.80
2018-04-12T11:09:35.641Z,63.60
2018-04-12T11:10:35.662Z,60.00
2018-04-12T11:11:35.683Z,61.40
2018-04-12T11:12:35.708Z,66.00
2018-04-12T11:13:35.723Z,63.50
2018-04-12T11:14:35.744Z,65.70
2018-04-12T11:15:35.764Z,59.30
2018-04-12T11:16:35.786Z,63.70
2018-04-12T11:17:35.803Z,64.10
2018-04-12T11:18:35.830Z,61.40
2018-04-12T11:19:35.848Z,58.40
2018-04-12T11:20:35.872Z,61.60
2018-04-12T11:21:35.888Z,62.00
2018-04-12T11:22:35.908Z,55.70
2018-04-12T11:23:35.956Z,62.90
2018-04-12T11:24:35.949Z,60.10
2018-04-12T11:25:36.002Z,61.50
2018-04-12T11:26:35.990Z,60.30
2018-04-12T11:27:36.012Z,60.90
2018-04-12T11:28:36.065Z,61.00
2018-04-12T11:29:36.052Z,60.30
2018-04-12T11:30:36.074Z,60.70
2018-04-12T11:31:36.131Z,62.40
2018-04-12T11:32:36.112Z,62.70
2018-04-12T11:33:36.135Z,60.40
2018-04-12T11:34:36.158Z,63.40
2018-04-12T11:35:36.181Z,62.10
2018-04-12T11:36:36.196Z,61.00
2018-04-12T11:37:36.216Z,58.10
2018-04-12T11:38:36.248Z,59.50
2018-04-12T11:39:36.266Z,61.00
2018-04-12T11:40:36.282Z,57.60
2018-04-12T11:41:36.300Z,61.30
2018-04-12T11:42:36.320Z,63.30
2018-04-12T11:43:36.339Z,61.30
2018-04-12T11:44:36.360Z,63.30
2018-04-12T11:45:36.380Z,67.00
2018-04-12T11:46:36.410Z,63.20
2018-04-12T11:47:36.421Z,62.40
2018-04-12T11:48:36.443Z,58.30
2018-04-12T11:49:36.477Z,61.80
2018-04-12T11:50:36.489Z,60.30
2018-04-12T11:51:36.513Z,58.50
2018-04-12T11:52:36.525Z,60.50
2018-04-12T11:53:36.543Z,62.10
2018-04-12T11:54:36.568Z,58.70
2018-04-12T11:55:36.588Z,64.50
2018-04-12T11:56:36.633Z,59.80
2018-04-12T11:57:36.628Z,58.20
2018-04-12T11:58:36.681Z,59.30
2018-04-12T11:59:36.678Z,61.20
2018-04-12T12:00:36.693Z,59.90
2018-04-12T12:01:36.712Z,60.60
2018-04-12T12:02:36.729Z,62.80
2018-04-12T12:03:36.749Z,62.10
2018-04-12T12:04:36.770Z,62.80
2018-04-12T12:05:36.790Z,60.50
2018-04-12T12:06:36.811Z,61.70
2018-04-12T12:07:36.833Z,62.40
2018-04-12T12:08:36.903Z,61.40
2018-04-12T12:09:36.877Z,63.00
2018-04-12T12:10:36.924Z,57.60
2018-04-12T12:11:36.930Z,60.60
2018-04-12T12:12:37.072Z,62.10
2018-04-12T12:13:36.958Z,59.00
2018-04-12T12:14:36.979Z,63.00
2018-04-12T12:15:36.996Z,61.60
2018-04-12T12:16:37.016Z,59.10
2018-04-12T12:17:37.101Z,57.40
2018-04-12T12:18:37.059Z,62.00
2018-04-12T12:19:37.075Z,60.50
2018-04-12T12:20:37.098Z,62.00
2018-04-12T12:21:37.119Z,57.60
2018-04-12T12:22:37.137Z,59.20
2018-04-12T12:23:37.183Z,58.40
2018-04-12T12:24:37.181Z,57.00
2018-04-12T12:25:37.201Z,64.50
2018-04-12T12:26:37.221Z,55.70
2018-04-12T12:27:37.248Z,56.80
2018-04-12T12:28:37.269Z,60.20
2018-04-12T12:29:37.285Z,60.80
2018-04-12T12:30:37.302Z,56.40
2018-04-12T12:31:37.330Z,58.70
2018-04-12T12:32:37.346Z,59.90
2018-04-12T12:33:37.366Z,55.30
2018-04-12T12:34:37.385Z,62.50
2018-04-12T12:35:37.407Z,57.20
2018-04-12T12:36:37.427Z,61.20
2018-04-12T12:37:37.451Z,57.40
2018-04-12T12:38:37.471Z,63.60
2018-04-12T12:39:37.490Z,57.40
2018-04-12T12:40:37.511Z,59.50
2018-04-12T12:41:37.535Z,59.00
2018-04-12T12:42:37.555Z,57.80
2018-04-12T12:43:37.572Z,57.90
2018-04-12T12:44:37.598Z,58.30
2018-04-12T12:45:37.613Z,61.60
2018-04-12T12:46:37.635Z,57.40
2018-04-12T12:47:37.661Z,56.60